»·PEaware :: N533ET P14-A09

N533ET :: P14-A09

FLIGHT INFORMATION

Flight Status: Arrived
Operator: Privately registered:
United States
More flights under this callsign
Pilot: Steve K. (2395)
Aircraft: PIPER PA-28 CHEROKEE ARCHER
(P28A)
More flights by this aircraft type
Origin: P14 Holbrook Mun
United States
Destination: A09 Eagle Airpark
United States
More flights between these airports :: More routes between these airports
Route: +INW V12 EED
File this flight plan on PilotEdge
Remarks: FSE -FSX-
Altitude:
(Current/Filed)
10,500ft
Speed:
(Current/Filed)
110kts
Departed: 23-Mar-15 09:39 AM
Arrived: 23-Mar-15 12:57 PM
Distance/Time
Traveled:
220nm/3:17
Distance/Time
To Go:
Arrived

Flight Plot

Page will automatically refresh every two minutes.

Flight plan parsing failed; only flown route is shown


Map Options




Map Legend


Flown Route
Filed Route
Departure Airport
Arrival Airport
Navaid (VOR, NDB)
Fix

Horizontal Profiles

Position Reports

Time Latitude Longitude Heading Altitude Ground
Speed
23-Mar-15 09:20 34.934867 -110.141393 129 5265ft 0kts
23-Mar-15 09:21 34.934867 -110.141393 129 5265ft 0kts
23-Mar-15 09:22 34.934867 -110.141393 129 5265ft 0kts
23-Mar-15 09:23 34.934867 -110.141393 129 5265ft 0kts
23-Mar-15 09:24 34.934829 -110.141322 103 5265ft 0kts
23-Mar-15 09:25 34.934859 -110.141255 19 5265ft 1kts
23-Mar-15 09:26 34.935954 -110.141515 37 5265ft 5kts
23-Mar-15 09:27 34.937167 -110.140344 37 5265ft 5kts
23-Mar-15 09:28 34.938407 -110.139145 41 5265ft 5kts
23-Mar-15 09:29 34.940302 -110.137170 39 5265ft 9kts
23-Mar-15 09:30 34.942159 -110.135372 37 5265ft 7kts
23-Mar-15 09:31 34.942923 -110.135674 308 5265ft 6kts
23-Mar-15 09:32 34.934338 -110.145076 222 5464ft 68kts
23-Mar-15 09:33 34.933237 -110.165885 271 6114ft 63kts
23-Mar-15 09:34 34.937549 -110.186987 277 6689ft 67kts
23-Mar-15 09:35 34.942167 -110.209397 284 7243ft 68kts
23-Mar-15 09:36 34.948911 -110.231145 281 7780ft 68kts
23-Mar-15 09:37 34.950551 -110.254108 269 8302ft 67kts
23-Mar-15 09:38 34.951322 -110.276640 275 8813ft 65kts
23-Mar-15 09:39 34.953459 -110.298112 277 9303ft 62kts
23-Mar-15 09:40 34.957417 -110.318120 286 9767ft 59kts
23-Mar-15 09:41 34.963680 -110.336398 287 10205ft 57kts
23-Mar-15 09:42 34.969476 -110.355552 289 10500ft 66kts
23-Mar-15 09:43 34.977464 -110.379455 286 10517ft 80kts
23-Mar-15 09:44 34.982318 -110.406926 279 10496ft 84kts
23-Mar-15 09:45 34.987523 -110.434796 281 10495ft 84kts
23-Mar-15 09:46 34.992165 -110.462778 279 10495ft 84kts
23-Mar-15 09:47 34.997737 -110.489803 284 10476ft 76kts
23-Mar-15 09:48 35.003100 -110.513451 280 10465ft 68kts
23-Mar-15 09:49 35.007452 -110.536223 283 10474ft 70kts
23-Mar-15 09:50 35.012738 -110.559521 281 10480ft 72kts
23-Mar-15 09:51 35.016986 -110.583623 280 10482ft 72kts
23-Mar-15 09:52 35.021251 -110.607903 281 10483ft 73kts
23-Mar-15 09:53 35.025608 -110.632191 280 10481ft 73kts
23-Mar-15 09:54 35.029808 -110.656635 280 10480ft 73kts
23-Mar-15 09:55 35.034200 -110.681033 280 10479ft 73kts
23-Mar-15 09:56 35.037446 -110.700000 280 10479ft 73kts
23-Mar-15 09:57 35.041798 -110.724414 280 10479ft 73kts
23-Mar-15 09:58 35.048748 -110.747962 289 10479ft 74kts
23-Mar-15 09:59 35.057409 -110.770862 290 10479ft 74kts
23-Mar-15 10:00 35.061120 -110.794789 264 10479ft 74kts
23-Mar-15 10:01 35.057105 -110.819593 259 10521ft 81kts
23-Mar-15 10:02 35.048858 -110.851255 258 10505ft 93kts
23-Mar-15 10:03 35.040911 -110.877313 257 10470ft 74kts
23-Mar-15 10:04 35.034074 -110.900843 261 10478ft 73kts
23-Mar-15 10:05 35.029698 -110.925479 262 10486ft 74kts
23-Mar-15 10:06 35.026257 -110.950495 266 10488ft 75kts
23-Mar-15 10:07 35.022221 -110.975718 260 10490ft 76kts
23-Mar-15 10:08 35.015136 -111.000366 259 10490ft 76kts
23-Mar-15 10:09 35.009754 -111.025437 263 10491ft 75kts
23-Mar-15 10:10 35.004209 -111.050364 259 10494ft 76kts
23-Mar-15 10:11 34.998478 -111.075298 262 10495ft 75kts
23-Mar-15 10:12 34.993291 -111.100108 260 10509ft 74kts
23-Mar-15 10:13 34.987407 -111.124337 260 10512ft 74kts
23-Mar-15 10:14 34.982572 -111.148699 263 10513ft 73kts
23-Mar-15 10:15 34.979027 -111.173422 265 10508ft 74kts
23-Mar-15 10:16 34.976630 -111.198370 267 10508ft 73kts
23-Mar-15 10:17 34.974057 -111.223243 265 10509ft 74kts
23-Mar-15 10:18 34.970298 -111.248162 262 10510ft 74kts
23-Mar-15 10:19 34.965238 -111.272903 259 10511ft 75kts
23-Mar-15 10:20 34.958678 -111.297278 257 10511ft 75kts
23-Mar-15 10:21 34.951650 -111.321643 257 10511ft 76kts
23-Mar-15 10:22 34.944724 -111.345743 258 10520ft 74kts
23-Mar-15 10:23 34.939563 -111.365938 259 10521ft 74kts
23-Mar-15 10:24 34.934116 -111.390312 261 10520ft 74kts
23-Mar-15 10:25 34.928653 -111.419035 262 10522ft 74kts
23-Mar-15 10:26 34.925129 -111.439586 262 10523ft 74kts
23-Mar-15 10:27 34.920704 -111.464361 261 10522ft 74kts
23-Mar-15 10:28 34.915876 -111.489068 260 10522ft 75kts
23-Mar-15 10:29 34.910432 -111.513702 259 10522ft 75kts
23-Mar-15 10:30 34.904603 -111.538387 259 10522ft 75kts
23-Mar-15 10:31 34.898698 -111.562993 259 10521ft 75kts
23-Mar-15 10:32 34.892988 -111.587588 260 10522ft 75kts
23-Mar-15 10:33 34.887653 -111.612312 260 10519ft 75kts
23-Mar-15 10:34 34.882531 -111.637201 261 10517ft 75kts
23-Mar-15 10:35 34.877533 -111.662053 261 10517ft 75kts
23-Mar-15 10:36 34.872393 -111.686957 260 10517ft 75kts
23-Mar-15 10:37 34.867065 -111.711891 260 10517ft 75kts
23-Mar-15 10:38 34.861600 -111.736730 260 10516ft 76kts
23-Mar-15 10:39 34.856065 -111.761696 260 10516ft 76kts
23-Mar-15 10:40 34.852561 -111.791095 264 10710ft 105kts
23-Mar-15 10:41 34.845802 -111.822359 256 10507ft 83kts
23-Mar-15 10:42 34.838081 -111.846747 258 10494ft 73kts
23-Mar-15 10:43 34.831808 -111.870365 258 10494ft 73kts
23-Mar-15 10:44 34.826271 -111.894063 257 10494ft 73kts
23-Mar-15 10:45 34.818410 -111.917119 256 10493ft 73kts
23-Mar-15 10:46 34.813696 -111.941144 265 10492ft 72kts
23-Mar-15 10:47 34.810098 -111.965449 264 10492ft 72kts
23-Mar-15 10:48 34.808958 -111.989853 273 10492ft 72kts
23-Mar-15 10:49 34.810648 -112.014253 274 10493ft 72kts
23-Mar-15 10:50 34.812684 -112.038582 278 10495ft 72kts
23-Mar-15 10:51 34.815874 -112.062822 276 10496ft 72kts
23-Mar-15 10:52 34.815464 -112.087577 277 10496ft 72kts
23-Mar-15 10:53 34.817155 -112.112097 265 10493ft 75kts
23-Mar-15 10:54 34.806193 -112.135747 250 10503ft 81kts
23-Mar-15 10:55 34.792332 -112.158335 241 10501ft 84kts
23-Mar-15 10:56 34.779283 -112.181609 249 10501ft 81kts
23-Mar-15 10:57 34.769573 -112.206453 251 10502ft 81kts
23-Mar-15 10:58 34.759372 -112.231241 256 10502ft 80kts
23-Mar-15 10:59 34.757993 -112.257873 270 10503ft 78kts
23-Mar-15 11:00 34.757575 -112.284704 270 10502ft 79kts
23-Mar-15 11:01 34.756890 -112.311653 269 10503ft 79kts
23-Mar-15 11:02 34.756240 -112.338607 270 10503ft 79kts
23-Mar-15 11:03 34.755798 -112.365677 270 10504ft 80kts
23-Mar-15 11:04 34.755291 -112.392740 270 10503ft 80kts
23-Mar-15 11:05 34.755151 -112.419906 270 10503ft 80kts
23-Mar-15 11:06 34.754823 -112.447088 270 10503ft 80kts
23-Mar-15 11:07 34.754645 -112.474164 270 10504ft 80kts
23-Mar-15 11:08 34.754379 -112.501312 270 10507ft 79kts
23-Mar-15 11:09 34.754106 -112.527077 270 10530ft 74kts
23-Mar-15 11:10 34.753820 -112.551971 270 10532ft 73kts
23-Mar-15 11:11 34.753510 -112.576574 270 10534ft 72kts
23-Mar-15 11:12 34.753238 -112.600935 270 10534ft 71kts
23-Mar-15 11:13 34.752920 -112.625111 270 10535ft 71kts
23-Mar-15 11:14 34.752650 -112.649321 270 10535ft 71kts
23-Mar-15 11:15 34.752342 -112.673552 270 10535ft 71kts
23-Mar-15 11:16 34.752065 -112.697736 270 10534ft 71kts
23-Mar-15 11:17 34.751776 -112.722051 270 10533ft 71kts
23-Mar-15 11:18 34.751493 -112.746321 270 10537ft 71kts
23-Mar-15 11:19 34.751212 -112.770482 270 10540ft 71kts
23-Mar-15 11:20 34.750935 -112.794815 270 10542ft 72kts
23-Mar-15 11:21 34.750662 -112.819354 270 10543ft 72kts
23-Mar-15 11:22 34.750145 -112.843940 265 10543ft 73kts
23-Mar-15 11:23 34.748473 -112.868398 270 10544ft 72kts
23-Mar-15 11:24 34.747539 -112.896214 270 10428ft 86kts
23-Mar-15 11:25 34.746552 -112.925186 272 10428ft 92kts
23-Mar-15 11:26 34.745467 -112.950500 270 10472ft 84kts
23-Mar-15 11:27 34.744347 -112.978621 270 10390ft 80kts
23-Mar-15 11:28 34.743217 -113.005090 270 10380ft 77kts
23-Mar-15 11:29 34.742117 -113.031159 270 10382ft 77kts
23-Mar-15 11:30 34.741003 -113.057609 270 10385ft 78kts
23-Mar-15 11:31 34.739882 -113.084237 270 10385ft 78kts
23-Mar-15 11:32 34.738795 -113.110863 270 10385ft 79kts
23-Mar-15 11:33 34.737666 -113.137612 270 10385ft 79kts
23-Mar-15 11:34 34.736582 -113.164365 270 10386ft 79kts
23-Mar-15 11:35 34.735469 -113.191148 270 10385ft 79kts
23-Mar-15 11:36 34.734371 -113.217808 270 10387ft 79kts
23-Mar-15 11:37 34.733246 -113.244561 270 10387ft 79kts
23-Mar-15 11:38 34.732119 -113.271222 270 10387ft 77kts
23-Mar-15 11:39 34.730996 -113.297045 270 10382ft 75kts
23-Mar-15 11:40 34.729866 -113.322602 270 10379ft 75kts
23-Mar-15 11:41 34.728751 -113.348013 270 10378ft 75kts
23-Mar-15 11:42 34.729164 -113.374229 278 10391ft 80kts
23-Mar-15 11:43 34.732269 -113.401624 278 10399ft 82kts
23-Mar-15 11:44 34.735403 -113.429486 278 10402ft 83kts
23-Mar-15 11:45 34.738578 -113.457370 278 10404ft 83kts
23-Mar-15 11:46 34.741718 -113.485405 278 10404ft 83kts
23-Mar-15 11:47 34.744908 -113.513473 278 10405ft 83kts
23-Mar-15 11:48 34.748075 -113.541494 278 10406ft 83kts
23-Mar-15 11:49 34.751257 -113.569508 278 10407ft 83kts
23-Mar-15 11:50 34.754433 -113.597408 278 10470ft 77kts
23-Mar-15 11:51 34.757361 -113.623603 278 10526ft 79kts
23-Mar-15 11:52 34.760460 -113.650706 278 10536ft 81kts
23-Mar-15 11:53 34.763569 -113.678359 278 10540ft 82kts
23-Mar-15 11:54 34.766557 -113.706193 275 10541ft 83kts
23-Mar-15 11:55 34.768099 -113.734241 275 10542ft 83kts
23-Mar-15 11:56 34.769705 -113.762387 275 10541ft 83kts
23-Mar-15 11:57 34.771303 -113.790567 275 10541ft 83kts
23-Mar-15 11:58 34.772935 -113.818680 275 10539ft 83kts
23-Mar-15 11:59 34.774596 -113.846861 275 10532ft 81kts
23-Mar-15 12:00 34.776226 -113.874701 275 10178ft 87kts
23-Mar-15 12:01 34.778192 -113.904315 275 9722ft 85kts
23-Mar-15 12:02 34.777283 -113.933409 265 9293ft 86kts
23-Mar-15 12:03 34.774280 -113.962356 265 8888ft 85kts
23-Mar-15 12:04 34.771470 -113.991334 265 8462ft 85kts
23-Mar-15 12:05 34.769048 -114.020089 271 8052ft 85kts
23-Mar-15 12:06 34.770626 -114.048781 270 7654ft 84kts
23-Mar-15 12:07 34.770995 -114.077365 270 7272ft 84kts
23-Mar-15 12:08 34.771590 -114.105823 270 6897ft 84kts
23-Mar-15 12:09 34.772281 -114.134138 270 6593ft 84kts
23-Mar-15 12:10 34.772657 -114.162954 270 6374ft 84kts
23-Mar-15 12:11 34.772851 -114.191559 270 6174ft 86kts
23-Mar-15 12:12 34.772715 -114.223341 269 5793ft 101kts
23-Mar-15 12:13 34.772253 -114.257230 269 5279ft 99kts
23-Mar-15 12:14 34.772607 -114.290910 271 4830ft 99kts
23-Mar-15 12:15 34.773563 -114.324377 271 4477ft 93kts
23-Mar-15 12:16 34.774532 -114.354989 271 4512ft 90kts
23-Mar-15 12:17 34.775160 -114.385857 271 4509ft 91kts
23-Mar-15 12:18 34.774945 -114.416731 271 4506ft 91kts
23-Mar-15 12:19 34.774487 -114.447749 271 4505ft 91kts
23-Mar-15 12:20 34.773807 -114.478849 271 4504ft 91kts
23-Mar-15 12:21 34.773090 -114.504716 271 4504ft 92kts
23-Mar-15 12:22 34.772033 -114.535960 271 4503ft 92kts
23-Mar-15 12:23 34.770888 -114.572384 271 4504ft 92kts
23-Mar-15 12:24 34.768280 -114.599231 271 4498ft 97kts
23-Mar-15 12:25 34.787512 -114.608848 16 3607ft 121kts
23-Mar-15 12:26 34.817793 -114.592344 15 3105ft 121kts
23-Mar-15 12:27 34.849602 -114.575962 15 2678ft 121kts
23-Mar-15 12:28 34.879521 -114.563766 351 2068ft 105kts
23-Mar-15 12:29 34.882490 -114.579618 249 1612ft 89kts
23-Mar-15 12:30 34.882490 -114.579618 249 1612ft 89kts
23-Mar-15 12:31 34.882490 -114.579618 249 1612ft 89kts
23-Mar-15 12:32 34.882490 -114.579618 249 1612ft 89kts
23-Mar-15 12:33 34.882490 -114.579618 249 1612ft 89kts
23-Mar-15 12:34 34.882490 -114.579618 249 1612ft 89kts
23-Mar-15 12:35 34.882490 -114.579618 249 1612ft 89kts
23-Mar-15 12:36 34.882490 -114.579618 249 1612ft 89kts
23-Mar-15 12:37 34.882490 -114.579618 249 1612ft 89kts
23-Mar-15 12:38 34.882490 -114.579618 249 1612ft 89kts
23-Mar-15 12:39 34.882490 -114.579618 249 1612ft 89kts
23-Mar-15 12:40 34.882490 -114.579618 249 1612ft 89kts
23-Mar-15 12:41 34.882490 -114.579618 249 1612ft 89kts
23-Mar-15 12:42 34.882490 -114.579618 249 1612ft 89kts
23-Mar-15 12:43 34.882490 -114.579618 249 1612ft 89kts
23-Mar-15 12:44 34.882490 -114.579618 249 1612ft 89kts
23-Mar-15 12:45 34.882490 -114.579618 249 1612ft 89kts
23-Mar-15 12:46 34.882490 -114.579618 249 1612ft 89kts
23-Mar-15 12:47 34.882490 -114.579618 249 1612ft 89kts
23-Mar-15 12:48 34.874591 -114.603695 247 1058ft 67kts
23-Mar-15 12:49 34.881599 -114.616763 3 503ft 77kts
23-Mar-15 12:50 34.892657 -114.615720 45 488ft 16kts
23-Mar-15 12:51 34.892920 -114.615514 305 488ft 0kts
23-Mar-15 12:52 34.892920 -114.615514 305 488ft 0kts
23-Mar-15 12:53 34.892920 -114.615514 305 488ft 0kts
23-Mar-15 12:54 34.892920 -114.615514 305 488ft 0kts
23-Mar-15 12:55 34.892920 -114.615514 305 488ft 0kts
23-Mar-15 12:56 34.892920 -114.615514 305 488ft 0kts
23-Mar-15 12:57 34.892920 -114.615514 305 488ft 0kts
23-Mar-15 12:58 34.892920 -114.615514 305 488ft 0kts
23-Mar-15 12:59 34.892920 -114.615514 305 488ft 0kts
23-Mar-15 13:00 34.892920 -114.615514 305 488ft 0kts
23-Mar-15 13:01 34.892920 -114.615514 305 488ft 0kts
23-Mar-15 13:02 34.892920 -114.615514 305 488ft 0kts
23-Mar-15 13:03 34.892920 -114.615514 305 488ft 0kts
23-Mar-15 13:04 34.892920 -114.615514 305 488ft 0kts

Navigation Log

Ident Type
Flight plan parsing failed, navigation log unavailable